Strona główna
METAR-TAF:

METAR-TAF

Lotnisko :

Emmen, Szwajcaria

Szerokość geograficzna: 47-05-32N, Długość geograficzna: 8-18-16E, wysokość: 426 m

Aktualna obserwacja pogody

Raport powstał 22 minut temu, godzina 13:20 UTC
Wiatr 3 kt od zachód, zmienny między południowo-południowy zachód i północno-północny zachód
Temperatura 27°C
Wilgotność 42%
Ciśnienie 1014 hPa
Widzialność 10 km lub więcej

METAR: LSME 171320Z AUTO 27003KT 210V330 9999NDV NCD 27/13 Q1014 RMK

czas: 15:42 (13:42 UTC)


TAF: brakujący

Obserwacja i prognoza pogody dla ponad 4000 lotnisk (raport METAR i TAF).

Dostępne stacje oznaczono żółtymi i czerwonymi punktami na mapie.

Najedź kursorem aby zobaczyć nazwę stacji.

Kliknij aby zobaczyć obserwacje i prognozy pogody.

Aby zmienić mapę: kliknij na zielony przycisk z czarnym krzyżykiem, aby powiększyć; na zielony przycisk z myślnikiem, aby pomniejszyć; na zielone strzałki, aby przejść do map sąsiednich.


METAR-TAF: